createdAt,value
2023-03-12T00:04:15.720Z,-1.45
2023-03-12T00:09:18.419Z,-1.51
2023-03-12T00:14:20.397Z,-1.46
2023-03-12T00:19:23.332Z,-1.33
2023-03-12T00:24:26.377Z,-0.73
2023-03-12T00:29:28.006Z,-0.75
2023-03-12T00:34:30.056Z,-0.53
2023-03-12T00:39:32.291Z,-0.66
2023-03-12T00:44:33.843Z,-0.47
2023-03-12T00:49:35.313Z,-0.39
2023-03-12T00:54:36.774Z,-0.05
2023-03-12T00:59:40.464Z,-0.39
2023-03-12T01:04:42.091Z,0.00
2023-03-12T01:09:43.571Z,-0.20
2023-03-12T01:14:45.064Z,-0.30
2023-03-12T01:19:46.537Z,-0.23
2023-03-12T01:24:48.312Z,-0.18
2023-03-12T01:29:50.025Z,-0.17
2023-03-12T01:34:51.546Z,0.06
2023-03-12T01:39:53.015Z,-0.16
2023-03-12T01:45:00.346Z,-0.20
2023-03-12T01:50:03.375Z,-0.22
2023-03-12T01:55:09.544Z,-0.28
2023-03-12T02:00:21.429Z,-0.17
2023-03-12T02:05:30.454Z,-0.04
2023-03-12T02:10:31.935Z,0.03
2023-03-12T02:15:35.555Z,-0.10
2023-03-12T02:20:45.628Z,0.00
2023-03-12T02:25:51.603Z,-0.08
2023-03-12T02:30:58.554Z,0.07
2023-03-12T02:36:00.158Z,0.33
2023-03-12T02:41:14.163Z,0.14
2023-03-12T02:46:16.491Z,0.52
2023-03-12T02:51:18.013Z,0.37
2023-03-12T02:56:19.453Z,0.29
2023-03-12T03:01:21.655Z,0.49
2023-03-12T03:06:24.561Z,0.44
2023-03-12T03:11:26.237Z,0.61
2023-03-12T03:16:27.673Z,0.58
2023-03-12T03:21:29.359Z,0.42
2023-03-12T03:26:31.334Z,0.77
2023-03-12T03:31:32.951Z,0.69
2023-03-12T03:36:34.501Z,0.87
2023-03-12T03:41:36.034Z,0.91
2023-03-12T03:46:37.622Z,0.81
2023-03-12T03:51:41.978Z,0.91
2023-03-12T03:56:43.583Z,0.61
2023-03-12T04:01:45.041Z,0.89
2023-03-12T04:06:46.504Z,1.01
2023-03-12T04:11:48.038Z,1.28
2023-03-12T04:16:49.513Z,1.43
2023-03-12T04:21:50.935Z,1.35
2023-03-12T04:26:52.435Z,1.27
2023-03-12T04:31:53.892Z,1.42
2023-03-12T04:36:55.315Z,1.57
2023-03-12T04:41:56.783Z,1.63
2023-03-12T04:46:58.326Z,1.54
2023-03-12T04:51:59.717Z,1.46
2023-03-12T04:57:01.221Z,1.39
2023-03-12T05:02:02.945Z,1.41
2023-03-12T05:07:04.534Z,1.30
2023-03-12T05:12:06.412Z,1.44
2023-03-12T05:17:07.914Z,1.40
2023-03-12T05:22:09.333Z,1.35
2023-03-12T05:27:11.610Z,1.35
2023-03-12T05:32:13.019Z,1.39
2023-03-12T05:37:14.448Z,1.32
2023-03-12T05:42:16.759Z,1.45
2023-03-12T05:47:18.669Z,1.47
2023-03-12T05:52:20.124Z,1.45
2023-03-12T05:57:21.591Z,1.52
2023-03-12T06:02:23.100Z,1.57
2023-03-12T06:07:25.273Z,1.55
2023-03-12T06:12:26.782Z,1.52
2023-03-12T06:17:32.387Z,1.57
2023-03-12T06:22:33.963Z,1.53
2023-03-12T06:27:35.358Z,1.51
2023-03-12T06:32:39.513Z,1.51
2023-03-12T06:37:41.114Z,1.57
2023-03-12T06:42:42.537Z,1.54
2023-03-12T06:47:44.156Z,1.65
2023-03-12T06:52:45.651Z,1.62
2023-03-12T06:57:47.178Z,1.55
2023-03-12T07:02:48.613Z,1.54
2023-03-12T07:07:50.615Z,1.51
2023-03-12T07:12:52.078Z,1.51
2023-03-12T07:17:53.698Z,1.52
2023-03-12T07:22:55.272Z,1.46
2023-03-12T07:27:56.701Z,1.44
2023-03-12T07:32:58.174Z,1.43
2023-03-12T07:38:00.591Z,1.47
2023-03-12T07:43:06.767Z,1.50
2023-03-12T07:48:08.705Z,1.53
2023-03-12T07:53:10.131Z,1.57
2023-03-12T07:58:13.173Z,1.61
2023-03-12T08:03:15.257Z,1.65
2023-03-12T08:08:17.246Z,1.72
2023-03-12T08:13:19.145Z,1.78
2023-03-12T08:18:21.184Z,1.86
2023-03-12T08:23:24.185Z,1.93
2023-03-12T08:28:25.679Z,1.99
2023-03-12T08:33:27.490Z,2.16
2023-03-12T08:38:29.052Z,2.16
2023-03-12T08:43:31.875Z,2.25
2023-03-12T08:48:33.395Z,2.34
2023-03-12T08:53:36.564Z,2.43
2023-03-12T08:58:38.027Z,2.50
2023-03-12T09:03:41.360Z,2.61
2023-03-12T09:08:44.790Z,2.66
2023-03-12T09:14:11.546Z,2.77
2023-03-12T09:19:07.798Z,2.86
2023-03-12T09:24:11.198Z,2.89
2023-03-12T09:29:13.202Z,2.96
2023-03-12T09:34:14.699Z,3.14
2023-03-12T09:39:16.525Z,3.23
2023-03-12T09:44:45.082Z,3.34
2023-03-12T09:49:51.165Z,3.58
2023-03-12T09:55:15.077Z,3.72
2023-03-12T10:00:32.851Z,3.81
2023-03-12T10:06:01.544Z,4.01
2023-03-12T10:11:08.533Z,4.10
2023-03-12T10:16:10.074Z,4.18
2023-03-12T10:21:48.979Z,4.32
2023-03-12T10:26:52.087Z,4.52
2023-03-12T10:32:07.789Z,4.63
2023-03-12T10:37:23.942Z,4.78
2023-03-12T10:42:27.777Z,4.97
2023-03-12T10:47:39.694Z,5.25
2023-03-12T10:52:41.839Z,5.43
2023-03-12T10:57:43.236Z,5.68
2023-03-12T11:02:45.972Z,5.82
2023-03-12T11:07:47.552Z,6.03
2023-03-12T11:13:03.737Z,6.33
2023-03-12T11:18:22.344Z,6.53
2023-03-12T11:23:30.384Z,6.80
2023-03-12T11:28:47.494Z,6.95
2023-03-12T11:33:51.279Z,6.99
2023-03-12T11:38:59.594Z,7.14
2023-03-12T11:44:25.948Z,7.26
2023-03-12T11:49:35.680Z,7.27
2023-03-12T11:55:20.789Z,7.38
2023-03-12T12:00:32.791Z,7.60
2023-03-12T12:05:53.372Z,7.77
2023-03-12T12:11:10.843Z,7.78
2023-03-12T12:16:40.390Z,7.72
2023-03-12T12:22:19.610Z,8.01
2023-03-12T12:27:26.681Z,7.93
2023-03-12T12:33:02.449Z,7.98
2023-03-12T12:38:49.411Z,7.86
2023-03-12T12:44:01.383Z,7.92
2023-03-12T12:49:46.319Z,8.09
2023-03-12T12:55:12.759Z,8.06
2023-03-12T13:00:37.888Z,8.02
2023-03-12T13:05:58.056Z,8.00
2023-03-12T13:11:17.189Z,8.08
2023-03-12T13:16:35.340Z,8.16
2023-03-12T13:22:14.455Z,8.39
2023-03-12T13:27:41.062Z,8.57
2023-03-12T13:33:12.240Z,8.65
2023-03-12T13:38:35.938Z,8.83
2023-03-12T13:43:41.503Z,8.89
2023-03-12T13:48:48.585Z,8.95
2023-03-12T13:53:58.478Z,8.96
2023-03-12T13:59:03.412Z,9.12
2023-03-12T14:04:13.695Z,9.41
2023-03-12T14:09:38.197Z,9.61
2023-03-12T14:15:11.461Z,9.65
2023-03-12T14:20:21.593Z,9.68
2023-03-12T14:25:35.931Z,9.79
2023-03-12T14:31:07.202Z,9.69
2023-03-12T14:36:16.885Z,9.65
2023-03-12T14:41:27.684Z,9.60
2023-03-12T14:46:31.508Z,9.73
2023-03-12T14:51:36.100Z,9.70
2023-03-12T14:56:38.143Z,9.79
2023-03-12T15:01:43.860Z,9.74
2023-03-12T15:06:56.509Z,9.66
2023-03-12T15:12:07.797Z,9.67
2023-03-12T15:17:19.431Z,9.96
2023-03-12T15:22:27.135Z,9.77
2023-03-12T15:27:33.734Z,9.75
2023-03-12T15:32:38.895Z,9.74
2023-03-12T15:37:42.111Z,9.57
2023-03-12T15:42:49.343Z,9.57
2023-03-12T15:47:57.423Z,9.68
2023-03-12T15:53:26.563Z,9.53
2023-03-12T15:58:35.571Z,9.61
2023-03-12T16:03:40.842Z,9.52
2023-03-12T16:08:53.152Z,9.46
2023-03-12T16:14:24.774Z,9.37
2023-03-12T16:19:36.864Z,9.28
2023-03-12T16:24:43.611Z,9.34
2023-03-12T16:29:45.109Z,9.20
2023-03-12T16:34:48.817Z,9.17
2023-03-12T16:39:50.313Z,9.17
2023-03-12T16:44:51.957Z,9.16
2023-03-12T16:49:53.757Z,9.20
2023-03-12T16:54:56.775Z,9.16
2023-03-12T16:59:59.048Z,9.06
2023-03-12T17:05:01.030Z,9.00
2023-03-12T17:10:07.355Z,8.90
2023-03-12T17:15:18.635Z,9.01
2023-03-12T17:20:23.496Z,8.99
2023-03-12T17:25:30.965Z,8.91
2023-03-12T17:30:43.085Z,8.82
2023-03-12T17:35:55.759Z,8.79
2023-03-12T17:40:58.124Z,8.75
2023-03-12T17:46:08.354Z,8.81
2023-03-12T17:51:13.631Z,8.73
2023-03-12T17:56:18.615Z,8.65
2023-03-12T18:01:20.226Z,8.69
2023-03-12T18:06:23.399Z,8.57
2023-03-12T18:11:24.900Z,8.55
2023-03-12T18:16:26.680Z,8.50
2023-03-12T18:21:31.671Z,8.48
2023-03-12T18:26:36.867Z,8.50
2023-03-12T18:31:41.335Z,8.45
2023-03-12T18:36:46.270Z,8.42
2023-03-12T18:41:50.959Z,8.37
2023-03-12T18:46:54.869Z,8.28
2023-03-12T18:51:59.884Z,8.37
2023-03-12T18:57:05.704Z,8.28
2023-03-12T19:02:07.433Z,8.19
2023-03-12T19:07:15.550Z,8.12
2023-03-12T19:12:17.141Z,8.03
2023-03-12T19:17:18.807Z,8.02
2023-03-12T19:22:22.817Z,7.98
2023-03-12T19:27:31.481Z,7.93
2023-03-12T19:32:43.309Z,7.92
2023-03-12T19:37:49.101Z,7.94
2023-03-12T19:42:50.590Z,8.01
2023-03-12T19:47:55.270Z,8.02
2023-03-12T19:52:56.803Z,7.94
2023-03-12T19:57:58.691Z,8.10
2023-03-12T20:03:00.370Z,8.04
2023-03-12T20:08:02.417Z,8.11
2023-03-12T20:13:03.904Z,8.00
2023-03-12T20:18:08.280Z,8.17
2023-03-12T20:23:09.916Z,8.22
2023-03-12T20:28:12.606Z,8.24
2023-03-12T20:33:15.620Z,8.29
2023-03-12T20:38:18.595Z,8.11
2023-03-12T20:43:20.852Z,8.26
2023-03-12T20:48:24.014Z,8.16
2023-03-12T20:53:27.145Z,8.14
2023-03-12T20:58:36.575Z,8.13
2023-03-12T21:03:39.081Z,8.34
2023-03-12T21:08:40.873Z,8.32
2023-03-12T21:13:42.584Z,8.28
2023-03-12T21:18:44.242Z,8.20
2023-03-12T21:23:45.959Z,8.21
2023-03-12T21:28:48.411Z,8.26
2023-03-12T21:33:50.052Z,8.30
2023-03-12T21:38:54.041Z,8.36
2023-03-12T21:43:55.848Z,8.36
2023-03-12T21:49:00.681Z,8.36
2023-03-12T21:54:02.222Z,8.29
2023-03-12T21:59:05.544Z,8.27
2023-03-12T22:04:07.228Z,8.17
2023-03-12T22:09:09.961Z,8.24
2023-03-12T22:14:15.970Z,8.20
2023-03-12T22:19:22.121Z,8.17
2023-03-12T22:24:30.337Z,8.23
2023-03-12T22:29:35.316Z,8.25
2023-03-12T22:34:38.921Z,8.23
2023-03-12T22:39:43.684Z,8.27
2023-03-12T22:44:45.467Z,8.49
2023-03-12T22:49:49.033Z,8.35
2023-03-12T22:54:50.736Z,8.42
2023-03-12T22:59:55.114Z,8.39
2023-03-12T23:04:59.123Z,8.36
2023-03-12T23:10:03.412Z,8.21
2023-03-12T23:15:06.240Z,8.19
2023-03-12T23:20:09.586Z,8.21
2023-03-12T23:25:12.544Z,8.23
2023-03-12T23:30:15.895Z,8.18
2023-03-12T23:35:17.575Z,8.21
2023-03-12T23:40:20.899Z,8.19
2023-03-12T23:45:25.340Z,8.12
2023-03-12T23:50:27.083Z,8.02
2023-03-12T23:55:29.915Z,8.01
